Time;durP1;ratioP1;P1;durP2;ratioP2;P2;SDS_P1;SDS_P2;PMS_P1;PMS_P2;Temp;Humidity;BMP_temperature;BMP_pressure;BME280_temperature;BME280_humidity;BME280_pressure;Samples;Min_cycle;Max_cycle;Signal;HPM_P1;HPM_P2
2023/10/10 00:02:19;;;;;;;12.80;9.82;;;17.00;65.80;;;;;;5021917;28;20076;-53
2023/10/10 00:04:49;;;;;;;11.48;9.15;;;17.00;65.80;;;;;;5014909;28;20515;-48
2023/10/10 00:07:26;;;;;;;14.18;10.65;;;16.90;65.70;;;;;;5024028;28;20080;-52
2023/10/10 00:09:55;;;;;;;12.98;10.48;;;16.90;65.70;;;;;;5011850;28;20050;-51
2023/10/10 00:12:30;;;;;;;11.98;9.52;;;16.90;65.80;;;;;;5023864;28;20084;-50
2023/10/10 00:15:01;;;;;;;12.85;10.10;;;16.90;65.90;;;;;;5019157;28;20730;-49
2023/10/10 00:17:34;;;;;;;11.80;9.50;;;16.80;65.90;;;;;;5025791;28;20859;-52
2023/10/10 00:20:41;;;;;;;11.60;9.18;;;16.80;65.80;;;;;;5024548;28;20061;-52
2023/10/10 00:22:58;;;;;;;12.23;10.15;;;16.80;65.90;;;;;;5017806;28;20057;-51
2023/10/10 00:25:30;;;;;;;12.23;9.07;;;16.80;65.90;;;;;;5023993;28;20060;-50
2023/10/10 00:28:06;;;;;;;;;;;16.80;65.90;;;;;;5026502;28;20538;-52
2023/10/10 00:30:42;;;;;;;14.15;8.50;;;16.80;65.80;;;;;;5025207;28;20482;-47
2023/10/10 00:33:16;;;;;;;11.48;9.20;;;16.80;66.30;;;;;;5034780;28;20459;-48
2023/10/10 00:35:44;;;;;;;11.63;9.75;;;16.70;65.80;;;;;;5021534;28;20069;-51
2023/10/10 00:38:17;;;;;;;9.93;8.88;;;16.70;65.80;;;;;;5020734;28;20049;-51
2023/10/10 00:40:47;;;;;;;;;;;16.70;65.90;;;;;;5024581;28;20041;-49
2023/10/10 00:43:22;;;;;;;9.75;8.65;;;16.70;65.90;;;;;;5026027;28;20071;-50
2023/10/10 00:45:57;;;;;;;11.02;9.00;;;16.70;65.60;;;;;;5021803;28;20045;-51
2023/10/10 00:48:29;;;;;;;12.35;9.95;;;16.70;65.80;;;;;;5024899;28;20088;-52
2023/10/10 00:51:06;;;;;;;11.77;9.70;;;16.60;65.80;;;;;;5019294;28;20033;-48
2023/10/10 00:53:34;;;;;;;11.50;9.57;;;16.60;65.80;;;;;;5021962;28;20041;-52
2023/10/10 00:56:06;;;;;;;13.10;9.75;;;16.60;66.10;;;;;;5011849;28;20048;-48
2023/10/10 00:58:36;;;;;;;11.85;9.10;;;16.50;66.10;;;;;;5022073;28;20104;-47
2023/10/10 01:01:10;;;;;;;12.15;8.88;;;16.50;66.10;;;;;;5019003;28;20068;-48
2023/10/10 01:03:42;;;;;;;10.75;9.65;;;16.60;66.30;;;;;;5022964;28;20418;-52
2023/10/10 01:06:25;;;;;;;12.27;10.27;;;16.50;66.20;;;;;;5014157;28;20410;-51
2023/10/10 01:09:39;;;;;;;12.13;9.45;;;16.50;66.20;;;;;;5019046;28;20033;-50
2023/10/10 01:11:50;;;;;;;10.85;9.55;;;16.50;66.20;;;;;;5010981;28;20512;-48
2023/10/10 01:14:21;;;;;;;10.57;9.48;;;16.50;66.20;;;;;;5020687;28;20046;-50
2023/10/10 01:16:54;;;;;;;10.63;9.52;;;16.40;66.30;;;;;;5028774;28;20041;-47
2023/10/10 01:19:29;;;;;;;11.43;9.68;;;16.40;66.20;;;;;;5029172;28;20073;-48
2023/10/10 01:22:03;;;;;;;12.63;10.35;;;16.40;66.30;;;;;;5018385;28;20099;-48
2023/10/10 01:24:31;;;;;;;12.00;9.57;;;16.40;66.40;;;;;;5029125;28;20063;-52
2023/10/10 01:27:17;;;;;;;12.30;10.00;;;16.50;66.50;;;;;;5023749;28;20073;-48
2023/10/10 01:30:17;;;;;;;12.82;9.43;;;16.40;66.40;;;;;;5020063;28;20508;-51
2023/10/10 01:32:42;;;;;;;12.35;9.77;;;16.40;66.40;;;;;;5027924;28;20046;-51
2023/10/10 01:35:16;;;;;;;12.30;9.35;;;16.40;66.30;;;;;;5027327;28;20100;-52
2023/10/10 01:37:54;;;;;;;10.68;9.57;;;16.40;66.30;;;;;;5021117;28;20049;-51
2023/10/10 01:40:28;;;;;;;13.75;8.90;;;16.40;66.40;;;;;;5030111;28;20029;-52
2023/10/10 01:42:59;;;;;;;11.77;9.65;;;16.40;66.60;;;;;;5016663;28;20034;-51
2023/10/10 01:45:29;;;;;;;12.27;9.68;;;16.30;66.50;;;;;;5022636;28;20515;-51
2023/10/10 01:48:02;;;;;;;12.63;10.43;;;16.30;66.70;;;;;;5014092;28;20133;-50
2023/10/10 01:50:30;;;;;;;14.38;10.13;;;16.30;66.70;;;;;;5029297;28;20116;-48
2023/10/10 01:52:57;;;;;;;11.38;10.18;;;16.30;66.80;;;;;;5018164;28;20041;-51
2023/10/10 01:55:30;;;;;;;12.32;9.82;;;16.30;66.80;;;;;;5027878;28;20038;-48
2023/10/10 01:58:10;;;;;;;11.77;9.95;;;16.30;66.80;;;;;;5018471;28;20554;-49
2023/10/10 02:00:43;;;;;;;10.93;8.95;;;16.30;67.00;;;;;;5010294;28;20049;-47
2023/10/10 02:03:10;;;;;;;14.38;9.85;;;16.30;66.90;;;;;;5020401;28;20046;-51
2023/10/10 02:08:17;;;;;;;11.50;10.05;;;16.30;66.90;;;;;;5030883;28;20045;-52
2023/10/10 02:10:47;;;;;;;11.60;10.15;;;16.30;66.80;;;;;;5029949;28;20052;-47
2023/10/10 02:13:14;;;;;;;11.60;9.30;;;16.30;66.90;;;;;;5025318;28;20054;-49
2023/10/10 02:15:41;;;;;;;13.45;10.27;;;16.20;66.80;;;;;;5015382;28;20543;-51
2023/10/10 02:18:31;;;;;;;11.93;9.90;;;16.30;66.80;;;;;;5028564;28;20400;-52
2023/10/10 02:21:06;;;;;;;13.13;10.20;;;16.30;66.80;;;;;;5020718;28;20060;-49
2023/10/10 02:23:33;;;;;;;12.27;10.40;;;16.20;66.80;;;;;;5029122;28;20045;-52
2023/10/10 02:26:14;;;;;;;12.52;9.93;;;16.20;66.80;;;;;;5019940;28;20044;-50
2023/10/10 02:29:21;;;;;;;12.88;9.90;;;16.20;66.80;;;;;;5024224;28;20053;-49
2023/10/10 02:31:42;;;;;;;12.35;10.82;;;16.20;66.90;;;;;;5027196;28;20140;-50
2023/10/10 02:34:13;;;;;;;11.25;10.07;;;16.20;66.80;;;;;;5025341;28;20121;-51
2023/10/10 02:36:42;;;;;;;14.30;11.68;;;16.20;66.90;;;;;;5021475;28;20428;-48
2023/10/10 02:41:48;;;;;;;14.50;11.88;;;16.20;67.70;;;;;;5019289;28;20053;-50
2023/10/10 02:47:02;;;;;;;12.40;10.93;;;16.20;68.00;;;;;;5017653;28;20520;-49
2023/10/10 02:51:57;;;;;;;13.60;11.90;;;16.20;67.80;;;;;;5026647;28;20037;-50
2023/10/10 02:54:28;;;;;;;11.80;10.60;;;16.20;67.80;;;;;;5028321;28;20037;-48
2023/10/10 02:57:26;;;;;;;13.63;11.35;;;16.20;67.90;;;;;;5022677;28;20038;-52
2023/10/10 02:59:59;;;;;;;12.80;9.95;;;16.10;67.60;;;;;;5026664;28;20048;-51
2023/10/10 03:02:30;;;;;;;13.13;10.48;;;16.20;67.40;;;;;;5022752;28;20046;-49
2023/10/10 03:07:30;;;;;;;14.98;10.48;;;16.10;67.20;;;;;;5030813;28;20065;-51
2023/10/10 03:12:37;;;;;;;11.77;10.57;;;16.10;67.50;;;;;;5022557;28;20507;-50
2023/10/10 03:25:50;;;;;;;15.98;11.38;;;16.00;67.50;;;;;;5024511;28;20099;-51
2023/10/10 05:24:00;;;;;;;11.07;8.75;;;15.70;68.70;;;;;;4983090;28;20077;-46
2023/10/10 05:26:30;;;;;;;15.18;8.23;;;15.80;68.90;;;;;;4977403;28;20109;-47
2023/10/10 05:29:00;;;;;;;8.95;8.02;;;15.70;68.70;;;;;;4976003;28;20043;-46
2023/10/10 05:31:30;;;;;;;11.18;8.52;;;15.70;68.80;;;;;;4977163;28;20054;-46
2023/10/10 05:34:02;;;;;;;9.38;8.35;;;15.70;68.80;;;;;;4977137;28;20051;-46
2023/10/10 05:36:29;;;;;;;8.98;8.05;;;15.70;68.70;;;;;;4976873;28;20067;-46
2023/10/10 05:38:56;;;;;;;10.52;8.65;;;15.70;68.90;;;;;;4977681;28;20105;-49
2023/10/10 05:41:22;;;;;;;12.07;9.48;;;15.70;68.90;;;;;;4982909;28;20122;-46
2023/10/10 05:43:49;;;;;;;12.82;8.82;;;15.70;68.80;;;;;;4979594;28;20030;-46
2023/10/10 05:46:18;;;;;;;13.13;8.02;;;15.70;68.80;;;;;;4978310;28;20520;-47
2023/10/10 05:48:46;;;;;;;10.38;8.75;;;15.70;68.80;;;;;;4979927;28;20134;-51
2023/10/10 05:51:13;;;;;;;11.45;8.38;;;15.70;68.80;;;;;;4980598;28;20058;-51
2023/10/10 05:53:40;;;;;;;13.48;8.98;;;15.60;69.10;;;;;;4978745;28;20058;-51
2023/10/10 05:56:13;;;;;;;11.48;8.93;;;15.70;69.60;;;;;;4976854;28;20116;-48
2023/10/10 05:58:42;;;;;;;12.23;8.73;;;15.70;70.00;;;;;;4979180;28;20050;-49
2023/10/10 06:01:14;;;;;;;13.75;9.10;;;15.70;70.40;;;;;;4973487;28;20054;-47
2023/10/10 06:03:42;;;;;;;12.43;9.25;;;15.60;70.60;;;;;;4981620;28;20042;-49
2023/10/10 06:06:13;;;;;;;12.32;8.70;;;15.70;70.80;;;;;;4981541;28;20039;-47
2023/10/10 06:08:44;;;;;;;12.27;8.95;;;15.70;71.00;;;;;;4986615;28;20042;-50
2023/10/10 06:11:14;;;;;;;12.32;9.90;;;15.80;71.40;;;;;;4973337;28;20057;-47
2023/10/10 06:13:43;;;;;;;13.73;9.52;;;15.80;71.20;;;;;;4985431;28;20112;-50
2023/10/10 06:16:12;;;;;;;11.32;8.05;;;15.80;71.20;;;;;;4984218;28;20460;-50
2023/10/10 06:18:49;;;;;;;13.18;9.40;;;15.80;71.20;;;;;;4991720;28;20046;-50
2023/10/10 06:21:18;;;;;;;13.20;9.15;;;15.90;71.50;;;;;;4983308;28;20050;-51
2023/10/10 06:23:45;;;;;;;13.48;8.35;;;15.90;71.40;;;;;;4988577;28;20133;-51
2023/10/10 06:26:12;;;;;;;11.02;8.25;;;16.00;71.30;;;;;;4989745;28;20042;-51
2023/10/10 06:28:47;;;;;;;13.20;9.02;;;16.00;71.20;;;;;;4993295;28;20046;-50
2023/10/10 06:31:19;;;;;;;12.13;8.43;;;16.00;71.20;;;;;;4989615;28;20070;-47
2023/10/10 06:33:49;;;;;;;;;;;16.00;71.00;;;;;;4990872;28;20050;-46
2023/10/10 06:38:59;;;;;;;11.68;8.70;;;16.10;70.50;;;;;;4991972;28;20046;-50
2023/10/10 06:41:27;;;;;;;10.50;7.72;;;16.10;70.60;;;;;;4986615;28;20117;-46
2023/10/10 06:43:54;;;;;;;9.50;7.80;;;16.10;70.70;;;;;;4984748;28;20034;-46
2023/10/10 06:46:23;;;;;;;12.65;7.80;;;16.10;70.90;;;;;;4986866;28;20480;-48
2023/10/10 06:48:50;;;;;;;13.55;7.93;;;16.20;71.10;;;;;;4991878;28;20497;-51
2023/10/10 06:51:22;;;;;;;12.00;8.00;;;16.20;71.20;;;;;;4991693;28;20348;-48
2023/10/10 06:53:54;;;;;;;10.05;7.50;;;16.20;71.40;;;;;;4985388;28;20042;-48
2023/10/10 06:56:43;;;;;;;;;;;16.30;71.60;;;;;;4989163;28;20649;-50
2023/10/10 06:59:16;;;;;;;9.00;6.97;;;16.40;71.90;;;;;;4991920;28;20411;-51
2023/10/10 07:01:45;;;;;;;9.20;7.10;;;16.40;71.10;;;;;;4991024;28;20038;-50
2023/10/10 07:04:13;;;;;;;8.02;6.80;;;16.40;71.40;;;;;;4981766;28;20747;-47
2023/10/10 07:06:45;;;;;;;8.60;6.85;;;16.40;71.60;;;;;;4987901;28;20054;-51
2023/10/10 07:09:14;;;;;;;9.05;7.18;;;16.50;72.40;;;;;;4992552;28;20042;-49
2023/10/10 07:11:42;;;;;;;9.23;6.57;;;16.50;71.70;;;;;;4983140;28;20046;-48
2023/10/10 07:14:10;;;;;;;8.05;6.82;;;16.60;71.90;;;;;;4984948;28;20042;-49
2023/10/10 07:16:42;;;;;;;10.27;7.40;;;16.60;71.90;;;;;;4983758;28;20050;-46
2023/10/10 07:19:19;;;;;;;13.25;7.90;;;16.70;72.00;;;;;;4984812;28;20058;-50
2023/10/10 07:21:47;;;;;;;8.65;7.38;;;16.70;72.00;;;;;;4982013;28;20101;-49
2023/10/10 07:24:15;;;;;;;8.35;6.97;;;16.80;72.10;;;;;;4981972;28;20109;-50
2023/10/10 07:26:43;;;;;;;8.07;7.22;;;16.80;72.10;;;;;;4982432;28;20765;-46
2023/10/10 07:29:27;;;;;;;9.63;6.80;;;16.90;72.20;;;;;;4982778;28;20045;-47
2023/10/10 07:32:04;;;;;;;10.48;7.63;;;17.00;72.30;;;;;;4973846;28;20046;-48
2023/10/10 07:34:35;;;;;;;7.55;6.80;;;17.00;72.20;;;;;;4980528;28;20061;-50
2023/10/10 07:37:08;;;;;;;8.65;7.13;;;17.10;72.30;;;;;;4980093;28;20047;-51
2023/10/10 07:39:55;;;;;;;9.27;7.15;;;17.10;72.30;;;;;;4985812;28;20125;-47
2023/10/10 07:42:30;;;;;;;8.73;6.85;;;17.20;72.20;;;;;;4983020;28;20048;-50
2023/10/10 07:44:58;;;;;;;9.98;7.22;;;17.30;72.40;;;;;;4976015;28;20055;-50
2023/10/10 07:47:27;;;;;;;9.73;7.35;;;17.40;72.40;;;;;;4979849;28;20039;-51
2023/10/10 07:49:55;;;;;;;8.85;7.60;;;17.40;72.50;;;;;;4985583;28;20117;-48
2023/10/10 07:52:23;;;;;;;10.52;6.85;;;17.50;72.30;;;;;;4979351;28;20053;-51
2023/10/10 07:54:53;;;;;;;8.48;6.80;;;17.60;72.30;;;;;;4981530;28;20057;-47
2023/10/10 07:57:28;;;;;;;11.57;7.07;;;17.70;72.40;;;;;;4981232;28;20121;-50
2023/10/10 07:59:58;;;;;;;8.50;6.47;;;17.70;72.20;;;;;;4982184;28;20096;-50
2023/10/10 08:05:01;;;;;;;10.50;6.35;;;17.90;72.00;;;;;;4977652;28;20073;-51
2023/10/10 08:07:28;;;;;;;9.48;5.45;;;18.00;71.80;;;;;;4979607;28;20047;-52
2023/10/10 08:10:17;;;;;;;10.70;6.22;;;18.00;71.70;;;;;;4979403;28;20042;-49
2023/10/10 08:12:53;;;;;;;6.65;5.43;;;18.10;71.30;;;;;;4982313;28;20085;-51
2023/10/10 08:15:20;;;;;;;6.53;4.95;;;18.20;71.00;;;;;;4985148;28;20129;-50
2023/10/10 08:17:52;;;;;;;6.40;4.15;;;18.30;70.60;;;;;;4979376;28;20054;-50
2023/10/10 08:23:09;;;;;;;8.32;5.07;;;18.50;69.90;;;;;;4981574;28;20557;-47
2023/10/10 08:25:39;;;;;;;7.90;4.57;;;18.60;69.50;;;;;;4983392;28;20042;-47
2023/10/10 08:28:06;;;;;;;8.02;4.60;;;18.60;68.60;;;;;;4984001;28;20101;-47
2023/10/10 08:30:32;;;;;;;6.30;4.53;;;18.70;68.40;;;;;;4978086;28;20042;-46
2023/10/10 08:33:01;;;;;;;6.47;4.40;;;18.80;68.20;;;;;;4978647;28;20112;-51
2023/10/10 08:35:29;;;;;;;7.90;5.18;;;18.90;68.40;;;;;;4983440;28;20617;-46
2023/10/10 08:37:57;;;;;;;7.93;5.05;;;18.90;67.60;;;;;;4981284;28;20061;-51
2023/10/10 08:40:33;;;;;;;7.57;4.45;;;19.00;66.90;;;;;;4978567;28;20206;-46
2023/10/10 08:43:03;;;;;;;7.80;4.60;;;19.10;66.40;;;;;;4981770;28;20065;-51
2023/10/10 08:45:39;;;;;;;8.48;4.30;;;19.10;65.90;;;;;;4987329;28;20054;-49
2023/10/10 08:48:15;;;;;;;7.93;5.03;;;19.20;66.00;;;;;;4980987;28;20037;-48
2023/10/10 08:50:46;;;;;;;12.32;5.38;;;19.30;66.10;;;;;;4987735;28;20038;-47
2023/10/10 08:53:14;;;;;;;7.80;4.65;;;19.40;65.70;;;;;;4977637;28;20042;-50
2023/10/10 08:55:41;;;;;;;8.50;4.80;;;19.40;65.40;;;;;;4983539;28;20093;-51
2023/10/10 08:58:08;;;;;;;8.07;4.95;;;19.50;65.50;;;;;;4982957;28;20734;-51
2023/10/10 09:00:37;;;;;;;7.20;4.90;;;19.50;65.30;;;;;;4978213;28;20055;-50
2023/10/10 09:03:07;;;;;;;6.10;4.95;;;19.60;64.80;;;;;;4972612;28;20049;-51
2023/10/10 09:05:36;;;;;;;7.30;4.53;;;19.70;64.50;;;;;;4976702;28;20051;-48
2023/10/10 09:08:15;;;;;;;9.52;5.32;;;19.80;65.10;;;;;;4974852;28;20045;-49
2023/10/10 09:10:53;;;;;;;7.57;5.18;;;19.80;64.40;;;;;;4977955;28;20039;-48
2023/10/10 09:13:19;;;;;;;7.32;4.70;;;19.90;63.90;;;;;;4981434;28;20069;-48
2023/10/10 09:15:56;;;;;;;9.65;5.32;;;19.90;64.00;;;;;;4978370;28;20121;-50
2023/10/10 09:18:25;;;;;;;7.30;4.72;;;20.00;63.30;;;;;;4976489;28;20121;-51
2023/10/10 09:21:08;;;;;;;12.00;5.78;;;20.10;63.60;;;;;;4982197;28;20124;-47
2023/10/10 09:23:42;;;;;;;5.28;4.15;;;20.10;63.80;;;;;;4984134;28;20042;-49
2023/10/10 09:29:03;;;;;;;7.40;5.53;;;20.20;63.70;;;;;;4985775;28;20050;-50
2023/10/10 09:31:33;;;;;;;8.60;5.07;;;20.30;63.40;;;;;;4977515;28;20044;-51
2023/10/10 09:34:03;;;;;;;8.15;5.22;;;20.30;63.00;;;;;;4981295;28;20065;-50
2023/10/10 09:36:37;;;;;;;8.05;5.00;;;20.30;63.00;;;;;;4981342;28;20046;-49
2023/10/10 09:39:08;;;;;;;7.43;4.60;;;20.30;63.10;;;;;;4985545;28;20050;-49
2023/10/10 09:41:37;;;;;;;6.17;4.60;;;20.40;62.90;;;;;;4983849;28;20129;-49
2023/10/10 09:49:46;;;;;;;7.82;4.97;;;20.40;62.40;;;;;;4985370;28;20054;-49
2023/10/10 09:55:25;;;;;;;7.45;4.60;;;20.50;62.50;;;;;;4983415;28;20042;-51
2023/10/10 10:09:21;;;;;;;10.73;5.95;;;20.60;61.60;;;;;;4991850;28;20456;-48
2023/10/10 10:12:04;;;;;;;7.78;4.60;;;20.60;61.40;;;;;;4985167;28;20150;-51
2023/10/10 10:14:47;;;;;;;6.03;3.97;;;20.60;62.00;;;;;;4995582;28;20054;-48
2023/10/10 10:17:45;;;;;;;;;;;20.70;62.10;;;;;;4988991;28;20144;-49
2023/10/10 10:20:21;;;;;;;7.15;4.43;;;20.70;62.50;;;;;;4984727;28;19932;-49
2023/10/10 10:22:53;;;;;;;8.50;4.05;;;20.80;62.10;;;;;;4981777;28;20496;-50
2023/10/10 10:25:25;;;;;;;6.28;3.90;;;20.80;62.00;;;;;;4977236;28;20109;-47
2023/10/10 10:28:14;;;;;;;7.90;5.13;;;20.80;61.80;;;;;;4987580;28;20504;-50
2023/10/10 10:30:50;;;;;;;8.05;5.03;;;20.90;62.00;;;;;;4985818;28;20042;-49
2023/10/10 10:33:22;;;;;;;7.60;4.88;;;20.90;61.00;;;;;;4988197;28;20046;-47
2023/10/10 10:35:58;;;;;;;;;;;21.00;60.90;;;;;;4984320;28;20042;-50
2023/10/10 10:38:27;;;;;;;7.47;4.70;;;21.10;61.60;;;;;;4980640;28;19925;-50
2023/10/10 10:41:07;;;;;;;7.45;4.95;;;21.10;60.70;;;;;;4979431;28;20047;-47
2023/10/10 10:43:38;;;;;;;6.70;4.65;;;21.10;60.20;;;;;;4988235;28;20089;-49
2023/10/10 10:46:13;;;;;;;9.23;4.57;;;21.10;60.20;;;;;;4983647;28;20073;-50
2023/10/10 10:48:47;;;;;;;5.38;4.40;;;21.20;60.00;;;;;;4981295;28;20093;-47
2023/10/10 10:51:32;;;;;;;9.18;4.90;;;21.20;59.80;;;;;;4982983;28;20042;-50
2023/10/10 10:53:59;;;;;;;6.15;3.95;;;21.30;60.20;;;;;;5020392;23;20092;-52
2023/10/10 10:59:12;;;;;;;6.77;4.60;;;21.40;59.60;;;;;;5015729;28;20492;-52
2023/10/10 11:01:51;;;;;;;7.18;5.68;;;21.50;59.40;;;;;;5002479;28;20089;-51
2023/10/10 11:07:09;;;;;;;6.22;4.22;;;21.60;59.50;;;;;;5011944;28;20121;-52
2023/10/10 11:09:38;;;;;;;9.73;4.72;;;21.70;59.40;;;;;;5008648;28;20129;-50
2023/10/10 11:12:06;;;;;;;7.10;4.43;;;21.70;59.20;;;;;;5009764;28;20110;-50
2023/10/10 11:14:46;;;;;;;9.38;5.32;;;21.80;58.90;;;;;;5010348;28;20041;-51
2023/10/10 11:17:18;;;;;;;7.05;4.22;;;21.90;58.90;;;;;;5008979;28;20077;-51
2023/10/10 11:19:47;;;;;;;5.88;4.15;;;21.90;59.00;;;;;;5008199;28;20125;-51
2023/10/10 11:25:04;;;;;;;8.35;5.75;;;22.10;58.70;;;;;;5008327;28;20129;-51
2023/10/10 11:27:43;;;;;;;7.75;4.50;;;22.20;58.30;;;;;;5005418;28;20038;-50
2023/10/10 11:30:11;;;;;;;10.38;5.00;;;22.30;58.20;;;;;;5005309;28;20108;-52
2023/10/10 11:32:46;;;;;;;9.98;4.53;;;22.40;58.30;;;;;;5004305;28;20092;-50
2023/10/10 11:35:26;;;;;;;8.10;4.47;;;22.50;58.10;;;;;;5006800;28;20045;-51
2023/10/10 11:37:59;;;;;;;7.97;4.82;;;22.60;57.40;;;;;;5008253;28;20073;-52
2023/10/10 11:42:59;;;;;;;7.28;5.20;;;22.90;57.80;;;;;;5019912;28;20038;-51
2023/10/10 11:45:26;;;;;;;5.28;4.25;;;23.00;57.60;;;;;;5014988;28;20408;-52
2023/10/10 11:48:00;;;;;;;10.48;4.80;;;23.10;57.00;;;;;;5006700;28;20034;-51
2023/10/10 11:50:48;;;;;;;9.23;5.30;;;23.20;56.80;;;;;;4998091;28;20061;-51
2023/10/10 11:53:23;;;;;;;7.43;4.57;;;23.40;56.20;;;;;;4998809;28;20126;-50
2023/10/10 11:56:07;;;;;;;6.60;4.47;;;23.40;55.60;;;;;;5000272;28;20038;-52
2023/10/10 11:58:36;;;;;;;8.38;4.55;;;23.40;55.70;;;;;;5006221;28;20042;-49
2023/10/10 12:01:08;;;;;;;7.68;4.43;;;23.40;55.60;;;;;;5016466;28;20458;-51
2023/10/10 12:06:06;;;;;;;9.13;5.45;;;23.40;55.00;;;;;;4995916;28;20045;-52
2023/10/10 12:08:36;;;;;;;8.15;4.47;;;23.40;54.70;;;;;;5000548;28;20125;-53
2023/10/10 12:11:11;;;;;;;6.03;4.53;;;23.40;54.70;;;;;;4998219;28;20038;-51
2023/10/10 12:13:39;;;;;;;9.10;4.97;;;23.40;55.40;;;;;;4998745;28;20153;-52
2023/10/10 12:16:12;;;;;;;9.00;4.43;;;23.50;55.00;;;;;;5010067;28;20101;-52
2023/10/10 12:18:44;;;;;;;7.78;4.15;;;23.50;54.30;;;;;;5007336;28;20129;-51
2023/10/10 12:21:19;;;;;;;8.05;4.40;;;23.50;54.80;;;;;;5016716;28;20089;-51
2023/10/10 12:23:50;;;;;;;8.65;4.20;;;23.60;54.90;;;;;;4999832;28;20045;-52
2023/10/10 12:26:18;;;;;;;5.05;4.10;;;23.70;54.60;;;;;;5000544;28;20046;-51
2023/10/10 12:28:48;;;;;;;6.72;4.10;;;23.70;54.10;;;;;;5008153;28;20105;-51
2023/10/10 12:31:17;;;;;;;6.22;3.97;;;23.80;53.50;;;;;;5021601;28;20091;-52
2023/10/10 12:33:47;;;;;;;6.80;3.15;;;23.80;53.00;;;;;;5015824;28;20653;-52
2023/10/10 12:36:18;;;;;;;5.63;3.97;;;23.90;52.60;;;;;;5008609;28;20124;-51
2023/10/10 12:38:48;;;;;;;4.97;3.83;;;23.90;52.80;;;;;;5013530;28;20041;-52
2023/10/10 12:41:20;;;;;;;5.90;3.67;;;24.00;53.40;;;;;;5010260;28;20056;-52
2023/10/10 12:43:48;;;;;;;5.50;3.72;;;24.10;52.70;;;;;;5006913;28;20593;-51
2023/10/10 12:46:17;;;;;;;8.88;4.15;;;24.10;52.70;;;;;;5022446;28;20075;-52
2023/10/10 12:48:46;;;;;;;7.53;4.57;;;24.20;52.90;;;;;;5018580;28;20046;-52
2023/10/10 12:51:12;;;;;;;5.57;4.38;;;24.30;52.60;;;;;;5010865;28;20038;-52
2023/10/10 12:53:39;;;;;;;8.18;4.20;;;24.30;51.90;;;;;;4989843;28;20640;-51
2023/10/10 12:56:11;;;;;;;5.78;4.00;;;24.40;52.00;;;;;;5006291;28;20064;-51
2023/10/10 12:58:43;;;;;;;6.03;4.03;;;24.50;51.60;;;;;;5003995;28;20034;-51
2023/10/10 13:01:15;;;;;;;6.70;4.10;;;24.60;51.50;;;;;;5004506;28;20049;-51
2023/10/10 13:03:47;;;;;;;4.68;3.75;;;24.60;51.70;;;;;;5001735;28;20125;-52
2023/10/10 13:06:15;;;;;;;7.20;5.07;;;24.70;51.60;;;;;;5004672;28;20038;-52
2023/10/10 13:08:54;;;;;;;6.35;4.55;;;24.80;51.10;;;;;;5005768;28;20117;-52
2023/10/10 13:11:32;;;;;;;6.80;4.60;;;24.80;50.70;;;;;;5003899;28;20053;-51
2023/10/10 13:14:09;;;;;;;8.02;3.88;;;24.90;50.60;;;;;;5007596;28;20053;-52
2023/10/10 13:19:12;;;;;;;5.80;4.10;;;25.10;50.40;;;;;;5003115;28;20703;-52
2023/10/10 13:21:42;;;;;;;8.00;4.18;;;25.10;50.10;;;;;;5008010;28;20042;-50
2023/10/10 13:24:11;;;;;;;7.60;3.67;;;25.20;50.00;;;;;;5010807;28;20057;-52
2023/10/10 13:26:42;;;;;;;7.28;4.03;;;25.30;49.70;;;;;;5007600;28;20950;-52
2023/10/10 13:29:13;;;;;;;5.97;3.70;;;25.40;49.60;;;;;;5012501;28;20056;-53
2023/10/10 13:31:49;;;;;;;6.80;3.67;;;25.50;49.70;;;;;;5020684;28;20111;-52
2023/10/10 13:34:22;;;;;;;;;;;25.60;50.00;;;;;;5014615;28;20048;-52
2023/10/10 13:36:51;;;;;;;7.18;2.97;;;25.90;51.80;;;;;;5005344;28;19922;-51
2023/10/10 13:39:33;;;;;;;6.63;3.53;;;26.50;51.20;;;;;;5023357;28;20042;-52
2023/10/10 13:42:00;;;;;;;4.70;3.07;;;27.20;50.90;;;;;;5011807;28;20038;-52
2023/10/10 13:44:33;;;;;;;5.13;3.33;;;28.10;50.30;;;;;;5005289;28;20679;-53
2023/10/10 13:47:00;;;;;;;5.57;3.13;;;29.20;48.50;;;;;;5015026;28;20048;-53
2023/10/10 13:49:27;;;;;;;7.50;4.38;;;30.10;47.80;;;;;;5022442;28;20068;-52
2023/10/10 13:51:53;;;;;;;6.85;4.22;;;31.10;46.30;;;;;;5011508;28;20034;-53
2023/10/10 13:54:20;;;;;;;4.95;3.63;;;32.00;45.00;;;;;;5011920;28;20575;-53
2023/10/10 13:56:50;;;;;;;4.63;3.38;;;32.90;43.90;;;;;;5003394;28;20061;-52
2023/10/10 13:59:17;;;;;;;4.72;3.35;;;33.80;42.50;;;;;;5019982;28;20117;-53
2023/10/10 14:01:53;;;;;;;5.80;3.60;;;34.50;41.20;;;;;;5021537;28;20038;-52
2023/10/10 14:04:27;;;;;;;4.28;3.30;;;35.20;39.30;;;;;;5000980;28;20042;-51
2023/10/10 14:07:00;;;;;;;7.18;4.00;;;35.80;38.30;;;;;;5009573;28;20404;-52
2023/10/10 14:09:33;;;;;;;5.47;3.33;;;36.40;37.80;;;;;;5008674;28;20073;-52
2023/10/10 14:12:20;;;;;;;3.45;3.10;;;36.90;37.10;;;;;;5003140;28;20170;-52
2023/10/10 14:14:51;;;;;;;6.60;3.30;;;37.40;36.40;;;;;;5011821;28;20042;-54
2023/10/10 14:17:25;;;;;;;5.18;3.20;;;37.70;36.00;;;;;;5024155;28;20069;-54
2023/10/10 14:19:58;;;;;;;6.10;3.10;;;38.20;35.20;;;;;;5013497;28;20072;-54
2023/10/10 14:22:27;;;;;;;6.32;4.03;;;38.50;34.30;;;;;;5010727;28;20040;-50
2023/10/10 14:25:17;;;;;;;4.45;3.35;;;38.70;33.50;;;;;;5002067;28;20066;-52
2023/10/10 14:27:44;;;;;;;3.22;3.00;;;38.80;33.10;;;;;;5010784;28;20157;-52
2023/10/10 14:30:23;;;;;;;4.30;2.97;;;38.80;32.60;;;;;;5001121;28;20050;-53
2023/10/10 14:32:58;;;;;;;3.40;3.05;;;38.70;32.70;;;;;;5004670;28;20034;-49
2023/10/10 14:35:27;;;;;;;5.70;3.15;;;38.50;32.60;;;;;;5009205;28;20041;-53
2023/10/10 14:37:57;;;;;;;4.35;3.33;;;38.20;32.60;;;;;;5003125;28;20042;-54
2023/10/10 14:40:33;;;;;;;4.68;3.70;;;37.70;32.50;;;;;;5023023;28;20045;-51
2023/10/10 14:43:06;;;;;;;5.43;3.22;;;37.20;32.50;;;;;;5017833;28;20578;-51
2023/10/10 14:45:34;;;;;;;6.00;3.17;;;36.70;32.60;;;;;;5017193;28;20064;-53
2023/10/10 14:48:06;;;;;;;4.38;3.13;;;36.30;33.40;;;;;;5026789;28;20124;-52
2023/10/10 14:50:38;;;;;;;5.60;2.90;;;36.00;33.90;;;;;;5027213;28;20124;-49
2023/10/10 14:53:08;;;;;;;6.70;2.95;;;36.00;34.10;;;;;;5013046;28;20042;-52
2023/10/10 14:55:47;;;;;;;4.40;3.20;;;36.00;34.10;;;;;;5010803;28;20057;-53
2023/10/10 14:58:16;;;;;;;7.20;3.00;;;36.20;33.90;;;;;;5006714;28;20775;-51
2023/10/10 15:00:45;;;;;;;4.15;2.83;;;36.40;34.20;;;;;;5000360;28;20514;-54
2023/10/10 15:03:13;;;;;;;6.78;3.10;;;36.60;33.70;;;;;;5001493;28;20046;-51
2023/10/10 15:05:51;;;;;;;5.10;3.00;;;36.90;33.60;;;;;;5007951;28;20036;-50
2023/10/10 15:08:21;;;;;;;5.22;3.00;;;37.10;32.90;;;;;;5002051;28;20043;-54
2023/10/10 15:10:53;;;;;;;4.93;2.67;;;37.30;33.00;;;;;;5000861;28;20043;-53
2023/10/10 15:13:20;;;;;;;3.13;2.80;;;37.50;32.50;;;;;;5011008;28;20049;-53
2023/10/10 15:15:48;;;;;;;5.25;3.13;;;37.70;32.50;;;;;;5027197;28;20533;-53
2023/10/10 15:18:16;;;;;;;3.28;2.60;;;37.90;32.00;;;;;;5028096;28;20049;-52
2023/10/10 15:20:46;;;;;;;4.95;2.95;;;37.90;31.90;;;;;;5013052;28;20451;-50
2023/10/10 15:23:18;;;;;;;3.38;2.90;;;38.10;31.30;;;;;;5004336;28;20804;-51
2023/10/10 15:25:52;;;;;;;9.23;5.38;;;38.10;31.30;;;;;;5003205;28;20041;-54
2023/10/10 15:28:19;;;;;;;11.55;4.03;;;38.10;31.30;;;;;;5017697;28;20045;-54
2023/10/10 15:30:45;;;;;;;4.95;3.42;;;38.10;30.90;;;;;;5018878;28;20076;-50
2023/10/10 15:33:17;;;;;;;4.22;3.20;;;38.10;31.20;;;;;;5004807;28;20038;-51
2023/10/10 15:35:52;;;;;;;2.92;2.55;;;38.00;30.70;;;;;;5008458;28;20120;-53
2023/10/10 15:38:19;;;;;;;4.88;2.55;;;38.00;30.50;;;;;;5003164;28;20137;-53
2023/10/10 15:40:46;;;;;;;3.85;2.65;;;38.00;30.50;;;;;;5012129;28;20046;-54
2023/10/10 15:43:12;;;;;;;6.22;2.40;;;37.90;31.30;;;;;;5019412;28;20034;-51
2023/10/10 15:46:06;;;;;;;6.78;3.20;;;37.90;31.30;;;;;;5004535;28;20049;-52
2023/10/10 15:48:42;;;;;;;4.50;2.78;;;37.90;31.10;;;;;;5023460;28;20046;-52
2023/10/10 15:51:09;;;;;;;4.22;2.70;;;37.90;31.70;;;;;;5003694;28;20042;-52
2023/10/10 15:53:42;;;;;;;5.32;3.13;;;37.80;32.10;;;;;;5011569;28;20410;-53
2023/10/10 15:56:17;;;;;;;5.00;3.17;;;37.70;32.20;;;;;;5004001;28;20045;-51
2023/10/10 15:58:49;;;;;;;4.72;3.22;;;37.50;32.10;;;;;;5018949;28;20139;-51
2023/10/10 16:01:22;;;;;;;3.53;2.47;;;37.00;32.20;;;;;;5004504;28;20084;-51
2023/10/10 16:03:53;;;;;;;7.05;3.28;;;36.60;32.80;;;;;;4999534;28;20508;-49
2023/10/10 16:06:22;;;;;;;6.25;3.05;;;36.00;33.20;;;;;;5000654;28;20524;-53
2023/10/10 16:08:51;;;;;;;4.63;2.70;;;35.40;34.50;;;;;;5006749;28;20045;-52
2023/10/10 16:11:31;;;;;;;6.78;3.08;;;34.60;34.60;;;;;;5004271;28;20041;-50
2023/10/10 16:13:58;;;;;;;6.70;3.10;;;33.90;35.40;;;;;;5023757;28;20046;-49
2023/10/10 16:16:25;;;;;;;4.63;2.67;;;33.30;36.20;;;;;;5014966;28;20049;-53
2023/10/10 16:18:57;;;;;;;5.88;3.47;;;32.60;37.60;;;;;;5020287;28;20128;-49